Time;durP1;ratioP1;P1;durP2;ratioP2;P2;SDS_P1;SDS_P2;PMS_P1;PMS_P2;Temp;Humidity;BMP_temperature;BMP_pressure;BME280_temperature;BME280_humidity;BME280_pressure;Samples;Min_cycle;Max_cycle;Signal;HPM_P1;HPM_P2
2021/08/05 00:00:26;;;;;;;7.20;1.45;;;;;;;14.99;78.50;99889.72;126481;1093;22751;-76
2021/08/05 00:03:14;;;;;;;6.70;1.50;;;;;;;15.00;78.48;99893.30;126453;1093;22770;-76
2021/08/05 00:05:43;;;;;;;7.77;1.23;;;;;;;14.99;78.07;99888.95;126421;1093;26555;-76
2021/08/05 00:08:20;;;;;;;4.00;1.30;;;;;;;15.01;78.81;99892.00;126471;1093;22743;-78
2021/08/05 00:10:48;;;;;;;6.00;1.65;;;;;;;15.03;78.92;99889.44;126430;1090;22861;-78
2021/08/05 00:13:17;;;;;;;11.45;2.20;;;;;;;15.04;78.83;99888.17;126419;1093;22782;-78
2021/08/05 00:15:45;;;;;;;7.60;1.90;;;;;;;15.03;78.71;99887.40;126334;1093;27151;-77
2021/08/05 00:18:16;;;;;;;7.25;1.70;;;;;;;15.01;78.80;99886.38;126470;1093;22739;-76
2021/08/05 00:20:43;;;;;;;;;;;;;;;15.00;78.62;99885.61;126469;1093;22932;-77
2021/08/05 00:23:12;;;;;;;5.45;1.30;;;;;;;15.01;78.67;99883.56;126393;1093;21460;-77
2021/08/05 00:25:40;;;;;;;6.27;1.53;;;;;;;15.03;78.68;99881.00;126469;1093;22784;-76
2021/08/05 00:28:09;;;;;;;6.00;1.65;;;;;;;15.07;78.58;99893.51;126438;1092;26491;-77
2021/08/05 00:30:38;;;;;;;8.00;1.80;;;;;;;15.10;78.87;99894.53;126428;1093;22781;-77
2021/08/05 00:33:08;;;;;;;6.40;1.90;;;;;;;15.09;79.05;99885.32;126454;1092;22761;-76
2021/08/05 00:35:38;;;;;;;6.75;1.70;;;;;;;15.08;79.30;99880.97;126538;1092;22862;-77
2021/08/05 00:38:07;;;;;;;5.10;1.55;;;;;;;15.08;79.19;99891.47;126434;1093;23675;-77
2021/08/05 00:40:35;;;;;;;6.35;1.90;;;;;;;15.07;79.10;99890.70;126325;1093;22792;-77
2021/08/05 00:43:03;;;;;;;6.85;1.65;;;;;;;15.07;79.44;99881.49;126388;1093;22781;-76
2021/08/05 00:45:32;;;;;;;7.35;1.60;;;;;;;15.08;79.21;99877.41;126450;1093;22797;-77
2021/08/05 00:48:00;;;;;;;6.00;1.60;;;;;;;15.08;79.09;99883.78;126444;1093;22790;-77
2021/08/05 00:50:29;;;;;;;5.83;1.73;;;;;;;15.06;79.36;99866.66;126462;1093;22770;-77
2021/08/05 00:52:59;;;;;;;9.60;2.05;;;;;;;15.07;79.45;99875.88;126439;1093;22858;-77
2021/08/05 00:55:28;;;;;;;6.70;1.70;;;;;;;15.06;79.03;99872.29;126430;1092;27650;-77
2021/08/05 00:57:56;;;;;;;8.07;2.20;;;;;;;15.05;79.56;99870.77;126461;1093;26938;-77
2021/08/05 01:00:25;;;;;;;8.60;2.13;;;;;;;15.04;79.28;99871.30;126408;1093;22848;-77
2021/08/05 01:03:11;;;;;;;6.90;1.90;;;;;;;15.03;79.47;99872.57;126461;1093;22925;-77
2021/08/05 01:05:47;;;;;;;6.45;1.85;;;;;;;15.00;79.58;99871.55;126450;1093;25896;-77
2021/08/05 01:08:24;;;;;;;8.25;1.85;;;;;;;14.96;79.24;99868.25;126283;1093;22784;-77
2021/08/05 01:10:56;;;;;;;6.10;1.60;;;;;;;14.93;79.71;99866.49;126442;1093;24165;-77
2021/08/05 01:13:31;;;;;;;7.20;2.10;;;;;;;14.93;79.29;99858.06;126437;1092;22771;-77
2021/08/05 01:16:06;;;;;;;8.40;1.90;;;;;;;14.92;79.76;99858.59;126484;1093;22764;-77
2021/08/05 01:18:37;;;;;;;7.50;2.05;;;;;;;14.92;79.63;99861.40;126457;1093;22767;-78
2021/08/05 01:21:15;;;;;;;6.20;1.60;;;;;;;14.89;79.41;99856.80;126547;1093;22814;-77
2021/08/05 01:23:53;;;;;;;6.95;1.75;;;;;;;14.87;79.47;99853.74;126432;1093;22851;-77
2021/08/05 01:26:30;;;;;;;10.00;2.60;;;;;;;14.86;79.49;99850.16;126430;1093;22764;-77
2021/08/05 01:29:01;;;;;;;9.07;2.17;;;;;;;14.85;79.88;99848.65;126464;1093;23392;-77
2021/08/05 01:31:31;;;;;;;8.57;2.17;;;;;;;14.84;79.87;99844.30;126537;1092;26410;-77
2021/08/05 01:34:00;;;;;;;6.23;1.83;;;;;;;14.83;79.47;99842.02;126483;1093;22762;-77
2021/08/05 01:36:31;;;;;;;7.15;2.30;;;;;;;14.82;79.84;99846.09;126452;1093;22842;-77
2021/08/05 01:39:02;;;;;;;9.67;2.17;;;;;;;14.78;80.09;99843.56;126485;1093;22822;-77
2021/08/05 01:41:33;;;;;;;6.63;1.73;;;;;;;14.75;80.05;99841.80;126357;1093;22856;-77
2021/08/05 01:44:05;;;;;;;7.30;2.07;;;;;;;14.72;79.87;99837.20;126396;1093;27477;-77
2021/08/05 01:46:35;;;;;;;5.45;1.50;;;;;;;14.67;79.47;99832.36;126392;1093;23568;-77
2021/08/05 01:49:04;;;;;;;10.60;2.15;;;;;;;14.62;79.86;99835.97;126443;1093;27389;-77
2021/08/05 01:51:34;;;;;;;6.90;1.80;;;;;;;14.59;79.42;99839.80;126490;1093;22758;-77
2021/08/05 01:54:05;;;;;;;8.53;2.20;;;;;;;14.56;79.87;99838.03;126543;1093;22776;-77
2021/08/05 01:56:34;;;;;;;7.47;1.87;;;;;;;14.58;79.82;99841.09;126412;1093;22764;-77
2021/08/05 01:59:02;;;;;;;6.30;1.80;;;;;;;14.58;79.97;99829.86;126554;1093;25839;-77
2021/08/05 02:01:31;;;;;;;7.65;1.85;;;;;;;14.53;79.92;99834.20;126433;1093;22793;-78
2021/08/05 02:04:11;;;;;;;8.15;2.05;;;;;;;14.52;80.08;99832.66;126430;1093;22781;-77
2021/08/05 02:06:46;;;;;;;7.20;1.78;;;;;;;14.50;79.79;99840.10;126446;1092;22781;-77
2021/08/05 02:09:20;;;;;;;6.27;1.50;;;;;;;14.47;79.74;99843.93;126519;1093;26634;-77
2021/08/05 02:11:54;;;;;;;6.65;1.80;;;;;;;14.45;80.15;99844.45;126471;1093;22778;-77
2021/08/05 02:14:26;;;;;;;10.20;2.17;;;;;;;14.45;80.20;99840.88;126462;1093;27208;-77
2021/08/05 02:16:55;;;;;;;6.30;1.95;;;;;;;14.43;80.37;99838.59;126551;1093;22848;-76
2021/08/05 02:19:30;;;;;;;7.90;2.10;;;;;;;14.44;80.46;99825.31;126718;1092;22905;-77
2021/08/05 02:22:00;;;;;;;7.20;2.25;;;;;;;14.45;80.60;99832.45;126401;1093;22784;-77
2021/08/05 02:24:32;;;;;;;5.00;1.80;;;;;;;14.46;80.50;99829.11;126497;1093;22762;-77
2021/08/05 02:27:00;;;;;;;;;;;;;;;14.46;80.64;99828.38;126546;1093;22767;-77
2021/08/05 02:29:32;;;;;;;9.00;2.40;;;;;;;14.45;81.07;99829.64;126559;1093;21511;-76
2021/08/05 02:32:01;;;;;;;10.10;2.60;;;;;;;14.45;80.86;99821.98;126527;1093;22848;-76
2021/08/05 02:34:31;;;;;;;7.57;2.70;;;;;;;14.47;80.78;99830.66;126578;1092;22764;-77
2021/08/05 02:37:00;;;;;;;8.47;2.53;;;;;;;14.47;80.93;99825.04;126454;1093;23703;-77
2021/08/05 02:39:30;;;;;;;9.50;2.80;;;;;;;14.48;81.39;99820.19;126443;1093;22783;-77
2021/08/05 02:41:58;;;;;;;;;;;;;;;14.47;81.25;99813.03;126541;1093;22795;-77
2021/08/05 02:44:29;;;;;;;12.93;2.63;;;;;;;14.47;81.19;99816.61;126405;1093;24518;-77
2021/08/05 02:46:59;;;;;;;10.20;2.85;;;;;;;14.47;81.47;99815.84;126504;1093;22802;-77
2021/08/05 02:49:31;;;;;;;8.10;2.05;;;;;;;14.49;81.24;99822.48;126593;1093;22779;-77
2021/08/05 02:52:00;;;;;;;11.00;2.63;;;;;;;14.48;81.25;99809.70;126489;1093;22754;-77
2021/08/05 02:54:30;;;;;;;6.60;2.20;;;;;;;14.49;81.59;99802.81;126457;1093;22764;-77
2021/08/05 02:56:58;;;;;;;7.50;2.33;;;;;;;14.52;81.60;99804.58;126412;1093;22883;-77
2021/08/05 02:59:27;;;;;;;10.43;2.63;;;;;;;14.53;81.71;99805.34;126413;1093;22780;-77
2021/08/05 03:01:59;;;;;;;13.40;3.50;;;;;;;14.52;81.50;99801.03;126472;1093;22855;-77
2021/08/05 03:04:32;;;;;;;12.23;3.03;;;;;;;14.53;81.78;99805.34;126623;1093;22925;-77
2021/08/05 03:07:02;;;;;;;12.50;2.85;;;;;;;14.55;81.75;99805.59;126425;1093;26274;-77
2021/08/05 03:09:31;;;;;;;8.88;2.30;;;;;;;14.54;81.88;99813.28;126481;1093;22886;-77
2021/08/05 03:11:59;;;;;;;8.90;2.70;;;;;;;14.53;81.59;99799.73;126458;1093;22768;-77
2021/08/05 03:14:28;;;;;;;8.80;2.30;;;;;;;14.52;81.85;99804.58;126567;1092;25865;-77
2021/08/05 03:16:56;;;;;;;8.65;2.50;;;;;;;14.53;81.70;99813.77;126393;1093;22750;-77
2021/08/05 03:19:25;;;;;;;6.85;2.25;;;;;;;14.51;81.48;99821.95;126387;1093;22742;-77
2021/08/05 03:21:53;;;;;;;7.63;2.40;;;;;;;14.49;81.50;99804.85;126429;1093;22774;-77
2021/08/05 03:24:22;;;;;;;10.67;3.00;;;;;;;14.49;82.05;99805.63;126449;1093;22774;-77
2021/08/05 03:26:50;;;;;;;8.20;2.40;;;;;;;14.49;81.67;99800.01;126430;1092;22841;-76
2021/08/05 03:29:20;;;;;;;8.00;2.47;;;;;;;14.51;82.13;99800.25;126434;1093;22758;-77
2021/08/05 03:31:48;;;;;;;7.03;2.13;;;;;;;14.50;81.94;99803.59;126445;1093;22758;-77
2021/08/05 03:34:17;;;;;;;7.57;2.13;;;;;;;14.51;82.25;99799.48;126499;1093;22764;-77
2021/08/05 03:36:47;;;;;;;8.83;2.40;;;;;;;14.51;82.10;99791.83;126494;1093;22771;-77
2021/08/05 03:39:15;;;;;;;7.45;2.30;;;;;;;14.52;82.25;99798.22;126415;1093;22784;-77
2021/08/05 03:41:44;;;;;;;10.20;3.15;;;;;;;14.52;82.05;99795.41;126401;1093;22790;-76
2021/08/05 03:44:12;;;;;;;9.60;2.30;;;;;;;14.51;81.85;99789.02;126473;1092;22837;-76
2021/08/05 03:46:44;;;;;;;8.25;2.00;;;;;;;14.50;82.26;99789.55;126408;1092;22881;-76
2021/08/05 03:49:12;;;;;;;9.10;2.60;;;;;;;14.52;82.52;99795.41;126442;1093;24448;-76
2021/08/05 03:51:41;;;;;;;14.35;3.45;;;;;;;14.52;82.35;99790.53;126478;1093;22792;-77
2021/08/05 03:54:09;;;;;;;9.70;2.83;;;;;;;14.54;82.42;99785.19;126432;1093;22764;-76
2021/08/05 03:56:37;;;;;;;10.80;2.73;;;;;;;14.56;82.36;99779.05;126427;1093;22922;-77
2021/08/05 03:59:06;;;;;;;9.05;3.25;;;;;;;14.57;82.29;99783.37;126476;1093;22770;-77
2021/08/05 04:01:34;;;;;;;11.65;2.95;;;;;;;14.57;82.31;99775.71;126485;1093;22790;-77
2021/08/05 04:04:04;;;;;;;11.25;3.20;;;;;;;14.59;82.42;99783.61;126464;1092;24123;-77
2021/08/05 04:06:35;;;;;;;10.75;3.20;;;;;;;14.61;82.71;99785.92;126437;1093;22896;-77
2021/08/05 04:09:04;;;;;;;13.27;4.00;;;;;;;14.62;82.50;99779.78;126433;1093;22745;-77
2021/08/05 04:11:32;;;;;;;11.87;3.40;;;;;;;14.64;82.64;99782.84;126438;1093;25977;-77
2021/08/05 04:14:01;;;;;;;10.40;3.13;;;;;;;14.66;82.70;99783.08;126422;1092;22786;-77
2021/08/05 04:16:30;;;;;;;8.70;2.60;;;;;;;14.68;82.51;99777.70;126369;1093;22861;-77
2021/08/05 04:18:59;;;;;;;11.90;3.20;;;;;;;14.71;82.47;99773.10;126431;1092;22852;-77
2021/08/05 04:21:27;;;;;;;11.93;3.13;;;;;;;14.73;82.86;99765.69;126418;1093;22791;-77
2021/08/05 04:23:55;;;;;;;11.25;2.95;;;;;;;14.76;82.30;99769.48;126488;1093;24484;-77
2021/08/05 04:26:24;;;;;;;10.70;3.25;;;;;;;14.79;82.92;99766.42;126431;1092;22702;-76
2021/08/05 04:28:53;;;;;;;10.80;3.05;;;;;;;14.82;82.33;99767.41;126437;1093;23965;-77
2021/08/05 04:31:22;;;;;;;7.25;2.70;;;;;;;14.85;82.69;99758.72;126462;1093;26327;-76
2021/08/05 04:33:50;;;;;;;11.77;3.33;;;;;;;14.87;82.80;99761.00;126480;1093;22795;-77
2021/08/05 04:36:20;;;;;;;15.55;3.75;;;;;;;14.88;82.61;99752.04;126397;1093;28839;-77
2021/08/05 04:38:48;;;;;;;10.50;2.73;;;;;;;14.90;83.03;99752.28;126309;1092;27309;-77
2021/08/05 04:41:16;;;;;;;9.60;3.00;;;;;;;14.94;82.94;99757.64;126426;1093;22848;-76
2021/08/05 04:43:45;;;;;;;8.30;3.10;;;;;;;14.97;82.92;99751.73;126388;1090;24607;-77
2021/08/05 04:46:15;;;;;;;10.67;3.73;;;;;;;15.02;83.22;99750.18;126390;1093;24461;-77
2021/08/05 04:48:46;;;;;;;10.48;2.90;;;;;;;15.05;83.07;99749.89;126442;1093;22751;-76
2021/08/05 04:51:15;;;;;;;9.07;3.23;;;;;;;15.10;82.93;99751.14;126410;1093;24547;-77
2021/08/05 04:53:44;;;;;;;10.10;3.47;;;;;;;15.13;83.15;99748.04;126409;1092;22817;-77
2021/08/05 04:56:12;;;;;;;12.50;3.60;;;;;;;15.15;82.99;99753.91;126441;1093;22764;-77
2021/08/05 04:58:41;;;;;;;11.80;4.40;;;;;;;15.17;83.24;99756.95;126452;1093;25980;-76
2021/08/05 05:01:12;;;;;;;14.10;4.20;;;;;;;15.21;83.59;99751.05;126412;1092;24576;-76
2021/08/05 05:03:40;;;;;;;15.80;4.37;;;;;;;15.24;83.54;99753.59;126422;1093;27639;-77
2021/08/05 05:06:10;;;;;;;11.70;3.77;;;;;;;15.30;83.59;99759.16;126508;1093;23619;-76
2021/08/05 05:08:38;;;;;;;13.60;3.87;;;;;;;15.33;83.28;99755.31;126468;1093;23696;-77
2021/08/05 05:11:06;;;;;;;17.45;4.60;;;;;;;15.36;83.28;99762.70;126440;1093;22855;-77
2021/08/05 05:13:38;;;;;;;10.90;4.60;;;;;;;15.40;83.33;99761.13;126369;1093;22764;-76
2021/08/05 05:16:07;;;;;;;13.10;4.70;;;;;;;15.43;83.71;99756.54;126485;1093;22751;-77
2021/08/05 05:18:36;;;;;;;15.10;5.00;;;;;;;15.46;83.07;99755.47;126557;1093;26229;-77
2021/08/05 05:21:05;;;;;;;15.50;5.70;;;;;;;15.50;83.33;99753.14;126444;1092;23392;-76
2021/08/05 05:23:35;;;;;;;15.58;5.15;;;;;;;15.53;83.03;99748.52;126499;1093;22864;-77
2021/08/05 05:26:04;;;;;;;17.77;6.60;;;;;;;15.57;83.35;99749.77;126431;1093;22764;-77
2021/08/05 05:28:32;;;;;;;15.10;5.05;;;;;;;15.62;83.17;99740.48;126444;1093;22789;-77
2021/08/05 05:31:01;;;;;;;14.15;6.00;;;;;;;15.64;83.18;99746.38;126438;1093;22831;-77
2021/08/05 05:33:31;;;;;;;12.55;5.10;;;;;;;15.67;83.08;99736.88;126581;1092;22781;-77
2021/08/05 05:35:59;;;;;;;12.67;5.30;;;;;;;15.70;83.32;99738.65;126536;1093;26395;-76
2021/08/05 05:38:28;;;;;;;14.10;5.65;;;;;;;15.74;82.95;99736.30;126477;1093;26554;-77
2021/08/05 05:40:56;;;;;;;13.75;5.25;;;;;;;15.79;82.69;99735.47;126447;1093;22800;-77
2021/08/05 05:43:25;;;;;;;15.75;5.80;;;;;;;15.84;83.14;99739.52;126420;1093;22834;-77
2021/08/05 05:45:53;;;;;;;11.80;5.20;;;;;;;15.89;83.29;99735.90;126380;1093;22755;-76
2021/08/05 05:48:22;;;;;;;13.60;5.70;;;;;;;15.91;83.42;99739.69;126501;1093;22784;-76
2021/08/05 05:50:52;;;;;;;16.03;6.60;;;;;;;15.96;83.21;99738.88;126418;1092;23010;-77
2021/08/05 05:53:23;;;;;;;17.63;6.27;;;;;;;15.99;83.34;99732.17;126462;1093;22790;-77
2021/08/05 05:55:52;;;;;;;13.85;5.80;;;;;;;16.00;83.21;99742.16;126400;1092;23014;-77
2021/08/05 05:58:22;;;;;;;13.20;5.65;;;;;;;16.04;83.05;99739.04;126399;1093;26941;-77
2021/08/05 06:00:51;;;;;;;15.43;5.60;;;;;;;16.07;83.25;99735.95;126401;1093;22839;-77
2021/08/05 06:03:20;;;;;;;15.85;5.65;;;;;;;16.09;83.49;99733.37;126449;1093;22767;-77
2021/08/05 06:05:49;;;;;;;12.40;5.88;;;;;;;16.11;83.06;99733.59;126446;1093;22800;-77
2021/08/05 06:08:19;;;;;;;15.75;6.05;;;;;;;16.13;83.11;99742.28;126440;1093;22925;-77
2021/08/05 06:10:56;;;;;;;16.10;6.55;;;;;;;16.16;83.06;99732.75;126380;1093;22753;-77
2021/08/05 06:13:28;;;;;;;13.73;6.53;;;;;;;16.19;83.44;99739.39;126454;1093;22812;-77
2021/08/05 06:15:57;;;;;;;15.63;6.98;;;;;;;16.20;83.11;99736.03;126385;1093;24445;-77
2021/08/05 06:18:25;;;;;;;15.55;7.30;;;;;;;16.21;82.93;99728.36;126399;1093;23437;-77
2021/08/05 06:20:54;;;;;;;17.50;6.50;;;;;;;16.25;83.09;99725.23;126430;1093;22952;-77
2021/08/05 06:23:22;;;;;;;15.90;6.50;;;;;;;16.29;83.36;99729.28;126404;1093;22816;-77
2021/08/05 06:25:51;;;;;;;12.77;7.13;;;;;;;16.36;83.65;99728.69;126381;1093;22784;-77
2021/08/05 06:28:19;;;;;;;12.50;6.40;;;;;;;16.42;83.40;99732.20;126462;1093;22802;-77
2021/08/05 06:30:48;;;;;;;16.60;7.80;;;;;;;16.47;82.87;99725.71;126372;1093;28349;-77
2021/08/05 06:33:16;;;;;;;19.70;8.10;;;;;;;16.53;83.80;99728.51;126475;1092;27217;-77
2021/08/05 06:35:45;;;;;;;15.25;8.60;;;;;;;16.56;83.29;99730.24;126407;1093;22773;-77
2021/08/05 06:38:13;;;;;;;18.80;8.60;;;;;;;16.60;83.14;99728.66;126474;1093;22980;-77
2021/08/05 06:40:43;;;;;;;18.85;10.58;;;;;;;16.63;83.00;99730.42;126454;1093;22787;-77
2021/08/05 06:43:12;;;;;;;19.25;10.40;;;;;;;16.69;82.93;99735.97;126452;1092;22848;-77
2021/08/05 06:45:41;;;;;;;19.20;9.40;;;;;;;16.74;83.61;99721.02;126428;1093;22934;-77
2021/08/05 06:48:09;;;;;;;20.20;11.20;;;;;;;16.80;83.66;99724.55;126501;1093;22973;-77
2021/08/05 06:50:38;;;;;;;18.45;10.10;;;;;;;16.84;83.54;99722.92;126490;1092;26245;-77
2021/08/05 06:53:07;;;;;;;22.05;12.20;;;;;;;16.87;84.01;99726.73;126536;1093;26325;-77
2021/08/05 06:55:35;;;;;;;21.70;10.90;;;;;;;16.90;83.39;99726.41;126419;1092;22783;-78
2021/08/05 06:58:04;;;;;;;18.87;10.60;;;;;;;16.92;82.90;99729.45;126506;1092;27208;-77
2021/08/05 07:00:33;;;;;;;18.05;11.40;;;;;;;16.95;83.42;99734.05;126474;1093;23566;-77
2021/08/05 07:03:01;;;;;;;19.50;11.20;;;;;;;16.99;83.36;99728.08;126342;1093;25862;-77
2021/08/05 07:05:32;;;;;;;20.60;12.05;;;;;;;17.03;83.99;99722.89;126419;1093;22755;-77
2021/08/05 07:08:01;;;;;;;20.15;12.15;;;;;;;17.05;83.35;99725.20;126585;1093;26327;-77
2021/08/05 07:10:30;;;;;;;20.05;11.40;;;;;;;17.10;83.97;99727.16;126406;1093;24321;-76
2021/08/05 07:13:01;;;;;;;20.40;11.87;;;;;;;17.13;83.53;99729.69;126380;1093;24146;-77
2021/08/05 07:15:32;;;;;;;20.90;13.40;;;;;;;17.16;83.42;99714.49;126455;1093;25948;-77
2021/08/05 07:18:06;;;;;;;20.47;12.30;;;;;;;17.22;83.44;99715.16;126466;1092;22842;-77
2021/08/05 07:20:38;;;;;;;19.55;12.30;;;;;;;17.28;83.71;99720.70;126469;1093;22784;-76
2021/08/05 07:23:12;;;;;;;22.40;13.90;;;;;;;17.33;83.58;99723.45;126525;1093;26069;-76
2021/08/05 07:25:44;;;;;;;18.90;11.50;;;;;;;17.36;83.47;99716.72;126409;1093;22771;-77
2021/08/05 07:28:16;;;;;;;20.05;11.80;;;;;;;17.37;82.93;99717.48;126452;1093;22782;-76
2021/08/05 07:30:54;;;;;;;21.30;12.05;;;;;;;17.39;83.36;99718.47;126469;1093;23527;-77
2021/08/05 07:33:26;;;;;;;24.35;13.20;;;;;;;17.43;83.21;99720.97;126428;1093;22797;-77
2021/08/05 07:35:57;;;;;;;21.70;14.33;;;;;;;17.47;82.83;99715.77;126478;1092;22855;-76
2021/08/05 07:38:29;;;;;;;22.60;12.75;;;;;;;17.48;83.15;99712.43;126495;1093;27307;-77
2021/08/05 07:41:05;;;;;;;22.80;12.65;;;;;;;17.49;83.15;99721.63;126410;1093;22756;-77
2021/08/05 07:43:36;;;;;;;20.65;12.90;;;;;;;17.50;83.16;99709.86;126526;1093;22972;-77
2021/08/05 07:46:09;;;;;;;23.10;12.70;;;;;;;17.49;83.08;99716.78;126398;1092;22680;-76
2021/08/05 07:48:42;;;;;;;21.40;13.40;;;;;;;17.51;82.75;99710.59;126535;1093;27399;-77
2021/08/05 07:51:13;;;;;;;21.80;14.50;;;;;;;17.56;83.37;99713.34;126489;1093;27177;-77
2021/08/05 07:53:45;;;;;;;22.45;13.55;;;;;;;17.59;83.43;99715.06;126462;1093;23050;-77
2021/08/05 07:56:17;;;;;;;24.23;14.13;;;;;;;17.65;83.66;99720.60;126528;1093;22788;-77
2021/08/05 07:58:49;;;;;;;22.85;13.45;;;;;;;17.70;82.97;99706.41;126550;1093;24118;-77
2021/08/05 08:01:25;;;;;;;22.50;13.57;;;;;;;17.76;82.74;99714.77;126598;1093;26304;-78
2021/08/05 08:03:57;;;;;;;21.65;13.40;;;;;;;17.81;82.83;99707.50;126529;1093;22765;-78
2021/08/05 08:06:28;;;;;;;20.97;13.30;;;;;;;17.87;83.02;99706.09;126628;1092;24452;-77
2021/08/05 08:09:00;;;;;;;22.57;13.33;;;;;;;17.94;83.20;99699.05;127012;1092;22774;-78
2021/08/05 08:11:35;;;;;;;21.77;14.33;;;;;;;18.01;83.26;99701.96;126873;1093;22876;-78
2021/08/05 08:14:07;;;;;;;18.75;11.45;;;;;;;18.04;82.74;99698.06;126755;1093;22793;-78
2021/08/05 08:16:40;;;;;;;20.87;12.20;;;;;;;18.08;82.58;99697.73;126803;1093;23648;-78
2021/08/05 08:19:14;;;;;;;20.60;12.13;;;;;;;18.09;82.49;99694.35;127096;1093;22748;-79
2021/08/05 08:21:45;;;;;;;21.83;12.83;;;;;;;18.11;82.36;99691.74;126746;1093;25736;-78
2021/08/05 08:24:17;;;;;;;21.45;11.78;;;;;;;18.16;82.34;99692.94;126825;1093;22851;-78
2021/08/05 08:26:50;;;;;;;21.00;11.77;;;;;;;18.23;82.22;99701.51;127262;1092;25825;-78
2021/08/05 08:29:22;;;;;;;21.27;12.27;;;;;;;18.26;82.34;99691.95;127055;1093;22781;-78
2021/08/05 08:31:54;;;;;;;19.20;11.93;;;;;;;18.34;82.30;99700.52;127226;1092;23260;-79
2021/08/05 08:34:25;;;;;;;19.00;10.43;;;;;;;18.36;81.35;99698.67;127185;1092;22751;-78
2021/08/05 08:36:57;;;;;;;16.53;9.40;;;;;;;18.37;81.27;99699.44;127151;1093;22829;-78
2021/08/05 08:39:31;;;;;;;17.50;10.08;;;;;;;18.37;80.85;99703.00;127138;1093;22829;-79
2021/08/05 08:42:02;;;;;;;16.88;9.73;;;;;;;18.39;80.92;99699.66;127154;1093;22761;-78
2021/08/05 08:44:35;;;;;;;18.25;8.90;;;;;;;18.39;80.92;99703.22;126702;1092;27391;-80
2021/08/05 08:47:09;;;;;;;13.83;7.40;;;;;;;18.38;80.36;99695.30;127167;1093;23366;-79
2021/08/05 08:49:43;;;;;;;14.80;8.68;;;;;;;18.35;80.77;99690.75;127130;1093;26305;-80
2021/08/05 08:52:15;;;;;;;17.75;10.05;;;;;;;18.37;80.62;99688.88;126743;1093;22755;-81
2021/08/05 08:54:50;;;;;;;17.20;9.53;;;;;;;18.42;81.44;99696.48;127132;1093;22797;-80
2021/08/05 08:57:26;;;;;;;15.15;8.70;;;;;;;18.45;80.75;99700.32;127129;1093;26298;-80
2021/08/05 09:00:00;;;;;;;13.70;7.00;;;;;;;18.43;80.24;99706.53;126687;1092;22705;-79
2021/08/05 09:02:35;;;;;;;12.30;7.00;;;;;;;18.44;80.00;99702.38;126871;1093;22784;-80
2021/08/05 09:05:09;;;;;;;15.35;7.13;;;;;;;18.47;79.81;99692.05;127080;1093;26655;-79
2021/08/05 09:07:40;;;;;;;14.68;6.50;;;;;;;18.47;79.76;99698.48;127262;1092;22909;-79
2021/08/05 09:10:14;;;;;;;12.80;6.78;;;;;;;18.51;79.79;99700.95;126653;1093;22732;-78
2021/08/05 09:12:46;;;;;;;13.38;5.90;;;;;;;18.55;80.04;99692.91;126841;1092;24595;-78
2021/08/05 09:15:35;;;;;;;12.83;6.63;;;;;;;18.61;80.37;99692.77;126693;1093;26306;-78
2021/08/05 09:18:25;;;;;;;12.25;6.50;;;;;;;18.62;79.71;99694.30;126701;1093;22702;-79
2021/08/05 09:21:16;;;;;;;11.40;6.27;;;;;;;18.64;80.04;99692.45;126749;1093;22772;-78
2021/08/05 09:23:56;;;;;;;12.68;6.73;;;;;;;18.66;79.78;99689.84;126875;1093;22893;-78
2021/08/05 09:26:33;;;;;;;12.95;5.68;;;;;;;18.65;79.69;99690.36;126800;1093;22732;-78
2021/08/05 09:29:16;;;;;;;11.13;5.50;;;;;;;18.66;79.32;99677.77;127074;1093;24425;-78
2021/08/05 09:31:57;;;;;;;11.40;5.60;;;;;;;18.66;79.10;99674.94;126739;1092;22787;-78
2021/08/05 09:34:37;;;;;;;11.57;5.63;;;;;;;18.70;78.99;99681.02;126989;1093;22764;-78
2021/08/05 09:37:11;;;;;;;12.83;5.80;;;;;;;18.76;78.99;99665.44;126606;1093;22839;-76
2021/08/05 09:39:45;;;;;;;11.23;5.73;;;;;;;18.78;78.44;99659.99;126566;1093;22747;-79
2021/08/05 09:42:18;;;;;;;11.98;5.15;;;;;;;18.80;78.61;99668.69;126736;1091;22841;-78
2021/08/05 09:44:53;;;;;;;11.38;4.60;;;;;;;18.85;78.46;99664.95;126999;1093;22874;-78
2021/08/05 09:47:24;;;;;;;14.53;6.50;;;;;;;18.94;78.78;99650.34;126625;1093;22745;-78
2021/08/05 09:49:57;;;;;;;12.28;5.65;;;;;;;19.03;78.39;99654.77;126482;1093;23039;-77
2021/08/05 09:52:30;;;;;;;11.85;5.93;;;;;;;19.06;77.96;99657.23;126632;1093;22912;-78
2021/08/05 09:55:05;;;;;;;11.20;5.78;;;;;;;19.08;77.54;99651.02;126690;1092;28352;-78
2021/08/05 09:57:37;;;;;;;11.83;5.03;;;;;;;19.10;77.65;99645.57;126530;1092;27249;-78
2021/08/05 10:00:15;;;;;;;11.75;5.30;;;;;;;19.14;77.28;99637.52;126735;1092;24284;-77
2021/08/05 10:02:48;;;;;;;13.13;5.33;;;;;;;19.17;77.51;99640.00;127749;1093;25855;-78
2021/08/05 10:05:21;;;;;;;13.03;5.10;;;;;;;19.21;77.61;99642.47;126576;1093;22788;-77
2021/08/05 10:07:54;;;;;;;12.35;5.38;;;;;;;19.23;77.02;99634.19;126579;1092;22835;-79
2021/08/05 10:10:27;;;;;;;13.55;6.03;;;;;;;19.21;76.50;99631.16;126701;1093;27259;-77
2021/08/05 10:13:01;;;;;;;14.08;7.10;;;;;;;19.21;77.27;99625.49;126653;1092;22798;-77
2021/08/05 10:15:33;;;;;;;15.48;6.58;;;;;;;19.20;75.90;99632.48;126823;1093;22788;-80
2021/08/05 10:18:05;;;;;;;11.50;5.23;;;;;;;19.18;76.25;99627.35;126680;1092;22714;-77
2021/08/05 10:20:37;;;;;;;12.98;6.43;;;;;;;19.20;76.34;99626.81;126516;1093;22768;-78
2021/08/05 10:23:10;;;;;;;13.25;6.30;;;;;;;19.21;76.74;99633.98;126518;1093;23646;-78
2021/08/05 10:25:43;;;;;;;12.15;6.15;;;;;;;19.23;76.56;99634.19;126334;1092;22754;-77
2021/08/05 10:28:17;;;;;;;16.38;6.65;;;;;;;19.23;76.04;99626.47;126560;1093;22778;-78
2021/08/05 10:30:51;;;;;;;12.47;5.97;;;;;;;19.19;76.08;99630.95;126720;1093;22758;-76
2021/08/05 10:33:23;;;;;;;12.53;6.68;;;;;;;19.21;76.48;99625.49;126838;1093;22781;-81
2021/08/05 10:35:55;;;;;;;12.58;6.00;;;;;;;19.21;77.13;99631.92;126925;1092;22845;-80
2021/08/05 10:38:27;;;;;;;15.53;7.80;;;;;;;19.20;77.23;99643.80;126721;1092;22771;-80
2021/08/05 10:41:01;;;;;;;20.60;9.55;;;;;;;19.15;77.69;99636.20;126443;1093;22766;-80
2021/08/05 10:43:35;;;;;;;23.23;11.35;;;;;;;19.04;77.90;99642.13;126574;1093;22797;-78
2021/08/05 10:46:07;;;;;;;17.00;9.30;;;;;;;18.93;78.10;99645.25;126573;1093;22751;-78
2021/08/05 10:48:48;;;;;;;15.75;8.05;;;;;;;18.84;77.90;99634.40;126771;1093;22756;-76
2021/08/05 10:51:20;;;;;;;15.13;8.98;;;;;;;18.77;77.96;99629.41;126384;1092;22801;-78
2021/08/05 10:53:56;;;;;;;16.78;8.55;;;;;;;18.71;77.84;99628.79;126423;1092;22742;-77
2021/08/05 10:56:30;;;;;;;17.80;9.35;;;;;;;18.63;78.20;99627.95;126446;1093;26239;-77
2021/08/05 10:59:15;;;;;;;15.75;8.73;;;;;;;18.56;78.14;99624.50;126421;1093;22764;-78
2021/08/05 11:01:50;;;;;;;17.40;8.55;;;;;;;18.49;78.40;99616.72;126453;1093;22774;-77
2021/08/05 11:04:46;;;;;;;15.30;8.23;;;;;;;18.46;78.76;99609.32;126526;1093;25919;-79
2021/08/05 11:07:34;;;;;;;16.73;8.28;;;;;;;18.46;79.13;99609.32;126408;1093;22910;-77
2021/08/05 11:10:25;;;;;;;12.97;7.03;;;;;;;18.45;79.41;99613.47;126588;1093;22976;-79
2021/08/05 11:13:15;;;;;;;13.80;7.30;;;;;;;18.50;79.41;99604.09;126541;1093;22942;-78
2021/08/05 11:15:52;;;;;;;;;;;;;;;18.55;79.55;99596.79;126621;1093;22755;-78
2021/08/05 11:18:29;;;;;;;12.83;6.13;;;;;;;18.49;79.17;99591.28;126463;1093;21511;-80
2021/08/05 11:21:29;;;;;;;11.48;7.00;;;;;;;18.49;79.06;99588.45;126511;1092;26276;-79
2021/08/05 11:24:00;;;;;;;11.03;6.03;;;;;;;18.52;79.03;99586.57;126524;1093;22764;-78
2021/08/05 11:26:34;;;;;;;14.50;6.68;;;;;;;18.55;79.37;99580.59;126407;1093;22764;-80
2021/08/05 11:29:30;;;;;;;10.33;5.28;;;;;;;18.56;79.22;99582.10;126367;1093;26398;-81
2021/08/05 11:32:41;;;;;;;13.23;6.60;;;;;;;18.60;79.32;99581.78;126474;1092;22764;-78
2021/08/05 11:35:23;;;;;;;12.63;6.48;;;;;;;18.65;79.68;99582.93;126442;1093;22781;-80
2021/08/05 11:38:13;;;;;;;11.68;5.93;;;;;;;18.65;79.34;99571.63;126550;1093;22797;-78
2021/08/05 11:40:47;;;;;;;10.30;5.60;;;;;;;18.63;79.08;99562.94;126407;1093;22852;-78